Time;durP1;ratioP1;P1;durP2;ratioP2;P2;SDS_P1;SDS_P2;PMS_P1;PMS_P2;Temp;Humidity;BMP_temperature;BMP_pressure;BME280_temperature;BME280_humidity;BME280_pressure;Samples;Min_cycle;Max_cycle;Signal;HPM_P1;HPM_P2
2021/04/14 00:01:51;;;;;;;7.50;6.40;;;0.40;99.90;;;;;;5011078;28;20548;-66
2021/04/14 00:04:17;;;;;;;13.33;7.20;;;0.40;99.90;;;;;;5010649;28;20552;-68
2021/04/14 00:06:44;;;;;;;9.07;6.13;;;0.40;99.90;;;;;;5011156;28;20545;-67
2021/04/14 00:09:11;;;;;;;7.40;6.03;;;0.40;99.90;;;;;;5011111;28;20560;-68
2021/04/14 00:11:38;;;;;;;8.83;7.00;;;0.40;99.90;;;;;;5010945;28;20472;-67
2021/04/14 00:14:06;;;;;;;7.70;6.30;;;0.40;99.90;;;;;;5011101;28;20550;-68
2021/04/14 00:16:32;;;;;;;10.50;6.37;;;0.40;99.90;;;;;;5011243;28;20486;-68
2021/04/14 00:18:59;;;;;;;18.80;7.30;;;0.40;99.90;;;;;;5011018;28;20856;-67
2021/04/14 00:21:26;;;;;;;6.80;5.43;;;0.40;99.90;;;;;;5010926;28;20549;-67
2021/04/14 00:23:54;;;;;;;9.03;6.50;;;0.30;99.90;;;;;;5010445;28;20472;-67
2021/04/14 00:26:21;;;;;;;8.07;6.30;;;0.20;99.90;;;;;;5010909;28;20500;-67
2021/04/14 00:28:48;;;;;;;8.80;6.87;;;0.20;99.90;;;;;;5010608;28;21035;-66
2021/04/14 00:31:15;;;;;;;8.43;6.53;;;0.20;99.90;;;;;;5010836;28;20557;-66
2021/04/14 00:33:42;;;;;;;9.77;6.00;;;0.20;99.90;;;;;;5010437;28;20446;-67
2021/04/14 00:36:09;;;;;;;7.63;6.90;;;0.10;99.90;;;;;;5010077;28;20536;-66
2021/04/14 00:38:35;;;;;;;7.33;6.30;;;0.10;99.90;;;;;;5010499;28;20449;-67
2021/04/14 00:41:05;;;;;;;7.10;6.40;;;0.00;99.90;;;;;;5010528;28;20470;-67
2021/04/14 00:43:36;;;;;;;10.50;6.53;;;0.00;99.90;;;;;;5010481;28;20520;-67
2021/04/14 00:46:04;;;;;;;7.70;6.47;;;0.00;99.90;;;;;;5010837;28;20441;-66
2021/04/14 00:48:30;;;;;;;9.43;7.50;;;0.00;99.90;;;;;;5010862;28;20562;-66
2021/04/14 00:50:57;;;;;;;11.93;5.90;;;0.10;99.90;;;;;;5010484;28;20466;-67
2021/04/14 00:53:23;;;;;;;6.70;6.00;;;0.10;99.90;;;;;;5010595;28;20882;-67
2021/04/14 00:55:50;;;;;;;8.03;6.23;;;0.10;99.90;;;;;;5010876;28;20759;-66
2021/04/14 00:58:17;;;;;;;6.10;5.30;;;0.10;99.90;;;;;;5010821;28;20529;-66
2021/04/14 01:00:46;;;;;;;8.20;5.90;;;0.10;99.90;;;;;;5010491;28;20466;-66
2021/04/14 01:03:18;;;;;;;7.80;6.07;;;0.00;99.90;;;;;;5010429;28;20591;-67
2021/04/14 01:05:45;;;;;;;7.03;5.90;;;0.00;99.90;;;;;;5010465;28;20454;-67
2021/04/14 01:08:12;;;;;;;6.50;5.57;;;-0.10;99.90;;;;;;5010771;28;20906;-67
2021/04/14 01:10:38;;;;;;;7.97;6.00;;;-0.10;99.90;;;;;;5010504;28;20474;-67
2021/04/14 01:13:06;;;;;;;8.67;6.90;;;-0.20;99.90;;;;;;5010274;28;20528;-66
2021/04/14 01:15:36;;;;;;;9.40;7.10;;;-0.30;99.90;;;;;;5010578;28;20456;-69
2021/04/14 01:18:04;;;;;;;9.13;5.73;;;-0.40;99.90;;;;;;5010335;28;20560;-67
2021/04/14 01:20:30;;;;;;;8.40;5.83;;;-0.40;99.90;;;;;;5010648;28;20815;-67
2021/04/14 01:22:58;;;;;;;9.87;6.97;;;-0.40;99.90;;;;;;5010049;28;20549;-67
2021/04/14 01:25:28;;;;;;;7.90;6.07;;;-0.50;99.90;;;;;;5010731;28;20525;-67
2021/04/14 01:27:54;;;;;;;7.63;5.97;;;-0.50;99.90;;;;;;5010443;28;21014;-67
2021/04/14 01:30:24;;;;;;;11.90;7.00;;;-0.60;99.90;;;;;;5010575;28;20473;-67
2021/04/14 01:32:52;;;;;;;7.83;6.80;;;-0.70;99.90;;;;;;5010338;28;20477;-69
2021/04/14 01:35:22;;;;;;;7.23;6.50;;;-0.60;99.90;;;;;;5010372;28;20500;-67
2021/04/14 01:37:49;;;;;;;8.00;6.50;;;-0.60;99.90;;;;;;5010392;28;20525;-67
2021/04/14 01:40:19;;;;;;;7.70;6.00;;;-0.60;99.90;;;;;;5010374;28;20465;-66
2021/04/14 01:42:46;;;;;;;7.03;6.33;;;-0.60;99.90;;;;;;5010388;28;20512;-67
2021/04/14 01:45:15;;;;;;;9.70;6.33;;;-0.60;99.90;;;;;;5010321;28;20529;-67
2021/04/14 01:47:41;;;;;;;8.13;6.53;;;-0.60;99.90;;;;;;5010547;28;21059;-67
2021/04/14 01:50:09;;;;;;;9.60;6.00;;;-0.60;99.90;;;;;;5013640;28;20448;-67
2021/04/14 01:52:35;;;;;;;8.37;6.93;;;-0.60;99.90;;;;;;5013682;28;20524;-67
2021/04/14 01:55:04;;;;;;;7.23;6.10;;;-0.60;99.90;;;;;;5013687;28;20442;-65
2021/04/14 01:57:31;;;;;;;10.57;7.43;;;-0.70;99.90;;;;;;5013999;28;20580;-66
2021/04/14 01:59:58;;;;;;;10.50;6.90;;;-0.70;99.90;;;;;;5013613;28;20532;-67
2021/04/14 02:02:24;;;;;;;6.80;5.57;;;-0.60;99.90;;;;;;5013738;28;20489;-66
2021/04/14 02:04:51;;;;;;;9.50;7.10;;;-0.60;99.90;;;;;;5013490;28;20452;-66
2021/04/14 02:07:18;;;;;;;6.80;5.90;;;-0.70;99.90;;;;;;5013613;28;20438;-67
2021/04/14 02:09:44;;;;;;;6.40;5.47;;;-0.70;99.90;;;;;;5013391;28;20490;-67
2021/04/14 02:12:11;;;;;;;9.13;6.93;;;-0.80;99.90;;;;;;5013122;28;20474;-66
2021/04/14 02:14:38;;;;;;;10.80;7.10;;;-0.80;99.90;;;;;;5013278;28;20453;-67
2021/04/14 02:17:05;;;;;;;9.43;7.50;;;-0.80;99.90;;;;;;5013277;28;20448;-66
2021/04/14 02:19:32;;;;;;;9.10;6.80;;;-0.80;99.90;;;;;;5013219;28;20441;-67
2021/04/14 02:21:58;;;;;;;7.13;6.30;;;-0.80;99.90;;;;;;5013057;28;20465;-67
2021/04/14 02:24:24;;;;;;;8.13;6.97;;;-0.90;99.90;;;;;;5012687;28;21203;-67
2021/04/14 02:26:51;;;;;;;7.63;6.23;;;-0.80;99.90;;;;;;5013045;28;20840;-66
2021/04/14 02:29:17;;;;;;;7.90;6.60;;;-0.80;99.90;;;;;;5013249;28;20655;-67
2021/04/14 02:31:44;;;;;;;9.70;6.90;;;-0.90;99.90;;;;;;5013570;28;20916;-66
2021/04/14 02:34:13;;;;;;;6.83;6.03;;;-0.70;99.90;;;;;;5013663;28;20584;-67
2021/04/14 02:36:40;;;;;;;9.43;6.77;;;-0.80;99.90;;;;;;5015184;28;20548;-67
2021/04/14 02:39:08;;;;;;;9.30;6.50;;;-0.80;99.90;;;;;;5014630;28;20449;-66
2021/04/14 02:41:34;;;;;;;7.80;6.27;;;-0.90;99.90;;;;;;5016136;28;20560;-67
2021/04/14 02:44:00;;;;;;;7.90;6.13;;;-0.80;99.90;;;;;;5013742;28;20537;-66
2021/04/14 02:46:27;;;;;;;10.77;6.50;;;-0.90;99.90;;;;;;5013779;28;20517;-65
2021/04/14 02:48:54;;;;;;;8.63;6.00;;;-1.00;99.90;;;;;;5012860;28;20569;-66
2021/04/14 02:51:21;;;;;;;8.90;6.73;;;-1.00;99.90;;;;;;5012946;28;20568;-66
2021/04/14 02:53:47;;;;;;;8.30;6.20;;;-1.00;99.90;;;;;;5012349;28;20867;-66
2021/04/14 02:56:14;;;;;;;10.50;6.60;;;-1.00;99.90;;;;;;5012384;28;20481;-66
2021/04/14 02:58:40;;;;;;;6.87;6.17;;;-1.00;99.90;;;;;;5012528;28;20525;-68
2021/04/14 03:01:06;;;;;;;9.20;6.83;;;-1.10;99.90;;;;;;5011708;28;20920;-67
2021/04/14 03:03:33;;;;;;;8.37;7.13;;;-1.10;99.90;;;;;;5012083;28;20450;-65
2021/04/14 03:06:00;;;;;;;9.43;6.80;;;-1.00;99.90;;;;;;5012807;28;20540;-67
2021/04/14 03:08:27;;;;;;;12.90;6.33;;;-1.00;99.90;;;;;;5012431;28;20898;-67
2021/04/14 03:10:53;;;;;;;8.73;5.70;;;-1.00;99.90;;;;;;5012646;28;20470;-67
2021/04/14 03:13:19;;;;;;;7.27;6.23;;;-1.00;99.90;;;;;;5012127;28;20446;-65
2021/04/14 03:15:46;;;;;;;8.87;7.00;;;-1.00;99.90;;;;;;5012404;28;20541;-67
2021/04/14 03:18:14;;;;;;;9.90;6.73;;;-1.00;99.90;;;;;;5012153;28;20442;-66
2021/04/14 03:20:41;;;;;;;8.97;6.10;;;-1.10;99.90;;;;;;5012093;28;20557;-66
2021/04/14 03:23:09;;;;;;;11.27;7.33;;;-1.10;99.90;;;;;;5011397;28;20894;-66
2021/04/14 03:25:35;;;;;;;8.10;6.00;;;-1.20;99.90;;;;;;5012084;28;20473;-67
2021/04/14 03:28:03;;;;;;;7.30;6.53;;;-1.20;99.90;;;;;;5011936;28;20473;-66
2021/04/14 03:30:29;;;;;;;9.60;6.93;;;-1.30;99.90;;;;;;5011634;28;20467;-68
2021/04/14 03:32:56;;;;;;;8.33;5.90;;;-1.30;99.90;;;;;;5011348;28;21008;-66
2021/04/14 03:35:24;;;;;;;10.57;6.40;;;-1.30;99.90;;;;;;5011838;28;20919;-66
2021/04/14 03:37:50;;;;;;;9.30;6.87;;;-1.30;99.90;;;;;;5011877;28;20537;-66
2021/04/14 03:40:19;;;;;;;8.17;7.27;;;-1.30;99.90;;;;;;5011721;28;21022;-66
2021/04/14 03:42:45;;;;;;;7.40;6.07;;;-1.30;99.90;;;;;;5011750;28;20488;-65
2021/04/14 03:45:17;;;;;;;10.10;8.10;;;-1.30;99.90;;;;;;5011420;28;20534;-68
2021/04/14 03:47:44;;;;;;;9.63;6.83;;;-1.30;99.90;;;;;;5011577;28;21227;-67
2021/04/14 03:50:14;;;;;;;9.87;6.93;;;-1.20;99.90;;;;;;5011086;28;20524;-66
2021/04/14 03:52:40;;;;;;;12.30;7.70;;;-1.30;99.90;;;;;;5011181;28;20441;-66
2021/04/14 03:55:09;;;;;;;9.13;7.70;;;-1.30;99.90;;;;;;5011431;28;20536;-68
2021/04/14 03:57:36;;;;;;;8.93;6.50;;;-1.30;99.90;;;;;;5011291;28;20796;-65
2021/04/14 04:00:03;;;;;;;11.13;7.07;;;-1.30;99.90;;;;;;5010841;28;20985;-66
2021/04/14 04:02:30;;;;;;;10.17;7.30;;;-1.30;99.90;;;;;;5010534;28;20448;-66
2021/04/14 04:04:56;;;;;;;9.00;6.57;;;-1.30;99.90;;;;;;5011108;28;20533;-68
2021/04/14 04:07:22;;;;;;;7.63;6.30;;;-1.30;99.90;;;;;;5011243;28;20481;-67
2021/04/14 04:09:49;;;;;;;13.70;7.87;;;-1.20;99.90;;;;;;5010950;28;20481;-66
2021/04/14 04:12:15;;;;;;;8.57;7.17;;;-1.20;99.90;;;;;;5010916;28;20470;-66
2021/04/14 04:14:47;;;;;;;8.87;7.33;;;-1.30;99.90;;;;;;5010450;28;21030;-66
2021/04/14 04:17:14;;;;;;;10.03;6.63;;;-1.30;99.90;;;;;;5010851;28;20450;-66
2021/04/14 04:19:40;;;;;;;7.53;6.37;;;-1.30;99.90;;;;;;5010863;28;20438;-69
2021/04/14 04:22:08;;;;;;;8.37;6.03;;;-1.40;99.90;;;;;;5010576;28;20470;-67
2021/04/14 04:24:34;;;;;;;9.17;6.93;;;-1.30;99.90;;;;;;5010487;28;21054;-68
2021/04/14 04:27:01;;;;;;;8.00;7.20;;;-1.40;99.90;;;;;;5010606;28;20445;-69
2021/04/14 04:29:27;;;;;;;9.40;7.00;;;-1.40;99.90;;;;;;5010575;28;20581;-66
2021/04/14 04:31:54;;;;;;;8.53;7.40;;;-1.40;99.90;;;;;;5010232;28;20572;-66
2021/04/14 04:34:21;;;;;;;8.47;6.83;;;-1.40;99.90;;;;;;5010110;28;20453;-68
2021/04/14 04:36:49;;;;;;;8.53;6.90;;;-1.50;99.90;;;;;;5010429;28;20535;-67
2021/04/14 04:39:16;;;;;;;7.73;6.60;;;-1.50;99.90;;;;;;5010616;28;20442;-66
2021/04/14 04:41:42;;;;;;;7.87;6.70;;;-1.60;99.90;;;;;;5010202;28;20466;-66
2021/04/14 04:44:09;;;;;;;9.60;7.07;;;-1.50;99.90;;;;;;5007183;28;20450;-68
2021/04/14 04:46:36;;;;;;;8.03;6.17;;;-1.50;99.90;;;;;;5009745;28;20438;-68
2021/04/14 04:49:03;;;;;;;11.93;6.70;;;-1.30;99.90;;;;;;5010084;28;20537;-66
2021/04/14 04:51:30;;;;;;;10.63;6.90;;;-1.30;99.90;;;;;;5009916;28;20457;-66
2021/04/14 04:53:57;;;;;;;21.00;7.10;;;-1.40;99.90;;;;;;4990115;28;20942;-66
2021/04/14 04:56:24;;;;;;;9.00;6.90;;;-1.30;99.90;;;;;;4990648;28;20458;-67
2021/04/14 04:58:50;;;;;;;8.50;5.97;;;-1.20;99.90;;;;;;4990424;28;20533;-66
2021/04/14 05:01:17;;;;;;;9.47;6.83;;;-1.20;99.90;;;;;;4990436;28;21040;-66
2021/04/14 05:03:44;;;;;;;7.30;6.60;;;-1.20;99.90;;;;;;4990230;28;20454;-66
2021/04/14 05:06:11;;;;;;;8.70;6.77;;;-1.20;99.90;;;;;;4990582;28;20455;-66
2021/04/14 05:08:37;;;;;;;9.80;5.60;;;-1.20;99.90;;;;;;4990419;28;20581;-66
2021/04/14 05:11:04;;;;;;;8.20;6.90;;;-1.10;99.90;;;;;;4990429;28;21160;-69
2021/04/14 05:13:30;;;;;;;11.07;7.80;;;-1.10;99.90;;;;;;5004365;28;20474;-68
2021/04/14 05:15:57;;;;;;;9.80;7.10;;;-1.10;99.90;;;;;;5008125;28;20442;-68
2021/04/14 05:18:24;;;;;;;9.07;7.03;;;-1.00;99.90;;;;;;5009677;28;20446;-66
2021/04/14 05:20:50;;;;;;;9.10;7.60;;;-1.00;99.90;;;;;;5006045;28;21102;-67
2021/04/14 05:23:17;;;;;;;7.93;6.80;;;-0.90;99.90;;;;;;5009792;28;20461;-68
2021/04/14 05:25:45;;;;;;;12.47;6.90;;;-0.80;99.90;;;;;;5012843;28;20477;-67
2021/04/14 05:28:14;;;;;;;7.77;6.97;;;-0.80;99.90;;;;;;5012566;28;20553;-65
2021/04/14 05:30:41;;;;;;;7.73;6.50;;;-0.90;99.90;;;;;;5012341;28;20465;-66
2021/04/14 05:33:10;;;;;;;10.87;7.00;;;-0.80;99.90;;;;;;5012688;28;20529;-66
2021/04/14 05:35:37;;;;;;;6.93;6.07;;;-0.80;99.90;;;;;;5012538;28;20557;-69
2021/04/14 05:38:04;;;;;;;8.40;6.60;;;-0.60;99.90;;;;;;5012531;28;21060;-66
2021/04/14 05:40:31;;;;;;;8.73;7.03;;;-0.60;99.90;;;;;;5012301;28;20552;-68
2021/04/14 05:42:58;;;;;;;9.77;7.60;;;-0.50;99.90;;;;;;5012170;28;20469;-66
2021/04/14 05:45:27;;;;;;;7.50;5.93;;;-0.40;99.90;;;;;;5004648;28;21035;-68
2021/04/14 05:47:54;;;;;;;8.90;6.57;;;-0.30;99.90;;;;;;5011108;28;20600;-68
2021/04/14 05:50:25;;;;;;;10.07;7.13;;;-0.20;99.90;;;;;;5007688;28;20847;-69
2021/04/14 05:52:52;;;;;;;8.57;7.03;;;0.10;99.90;;;;;;5010861;28;21016;-67
2021/04/14 05:55:19;;;;;;;8.83;6.90;;;0.40;99.90;;;;;;5010323;28;20544;-66
2021/04/14 05:57:46;;;;;;;7.60;6.33;;;0.60;99.90;;;;;;5011625;28;20481;-67
2021/04/14 06:00:16;;;;;;;8.30;6.80;;;0.70;99.90;;;;;;5012286;28;20457;-68
2021/04/14 06:02:43;;;;;;;6.60;5.80;;;0.80;99.90;;;;;;5012221;28;21023;-68
2021/04/14 06:05:11;;;;;;;8.20;6.00;;;1.00;99.90;;;;;;5007825;28;20549;-67
2021/04/14 06:07:37;;;;;;;7.20;6.23;;;1.10;99.90;;;;;;5009162;28;20587;-68
2021/04/14 06:10:05;;;;;;;7.67;6.13;;;1.10;99.90;;;;;;5010503;28;20883;-65
2021/04/14 06:12:32;;;;;;;11.27;6.73;;;1.10;99.90;;;;;;5009820;28;20482;-66
2021/04/14 06:14:59;;;;;;;7.47;6.70;;;1.10;99.90;;;;;;5010742;28;20537;-68
2021/04/14 06:17:26;;;;;;;11.53;7.20;;;1.10;99.90;;;;;;5011023;28;20478;-67
2021/04/14 06:19:52;;;;;;;7.90;6.80;;;1.30;99.90;;;;;;5010789;28;20457;-67
2021/04/14 06:22:19;;;;;;;9.53;7.30;;;1.50;99.90;;;;;;5010573;28;20452;-68
2021/04/14 06:24:45;;;;;;;11.10;6.70;;;1.70;99.90;;;;;;5010817;28;20524;-67
2021/04/14 06:27:16;;;;;;;12.00;7.63;;;1.80;99.90;;;;;;5010821;28;20468;-67
2021/04/14 06:29:43;;;;;;;9.47;6.70;;;1.90;99.90;;;;;;5009935;28;20508;-67
2021/04/14 06:32:10;;;;;;;8.30;7.40;;;2.10;99.90;;;;;;5010831;28;20552;-67
2021/04/14 06:34:36;;;;;;;10.30;7.03;;;2.30;99.90;;;;;;5008351;28;20481;-67
2021/04/14 06:37:03;;;;;;;10.90;7.30;;;2.60;99.90;;;;;;5010767;28;20585;-67
2021/04/14 06:39:32;;;;;;;12.27;8.13;;;2.70;99.90;;;;;;4999315;28;20454;-67
2021/04/14 06:42:23;;;;;;;9.00;8.10;;;2.80;99.90;;;;;;5003606;28;20469;-67
2021/04/14 06:45:08;;;;;;;7.90;6.90;;;2.80;99.90;;;;;;5010178;28;20450;-67
2021/04/14 06:48:10;;;;;;;11.67;7.60;;;2.80;99.90;;;;;;5009105;28;20965;-68
2021/04/14 06:50:40;;;;;;;11.30;8.30;;;3.00;99.90;;;;;;4993776;28;21114;-66
2021/04/14 06:53:24;;;;;;;9.33;7.67;;;3.30;99.90;;;;;;5009549;28;20477;-66
2021/04/14 06:55:56;;;;;;;8.40;6.73;;;3.50;99.90;;;;;;5009992;28;20477;-67
2021/04/14 06:58:31;;;;;;;8.57;7.63;;;3.70;99.90;;;;;;5010010;28;20442;-67
2021/04/14 07:01:04;;;;;;;11.00;6.43;;;3.80;99.90;;;;;;5009847;28;20600;-66
2021/04/14 07:03:40;;;;;;;10.70;7.63;;;3.70;99.90;;;;;;5009702;28;20533;-66
2021/04/14 07:06:12;;;;;;;8.63;7.17;;;3.60;99.90;;;;;;5009797;28;20537;-68
2021/04/14 07:08:44;;;;;;;9.50;6.97;;;3.50;99.90;;;;;;5009908;28;20485;-67
2021/04/14 07:11:20;;;;;;;10.03;7.60;;;3.50;99.90;;;;;;5009288;28;20501;-66
2021/04/14 07:13:48;;;;;;;13.77;8.13;;;3.50;99.90;;;;;;5008534;28;20445;-66
2021/04/14 07:16:34;;;;;;;10.50;6.90;;;3.50;99.90;;;;;;5009660;28;20445;-67
2021/04/14 07:19:09;;;;;;;11.17;8.13;;;3.50;99.90;;;;;;5009745;28;20445;-66
2021/04/14 07:21:40;;;;;;;9.47;8.07;;;3.50;99.90;;;;;;5009703;28;20469;-66
2021/04/14 07:24:19;;;;;;;12.73;8.40;;;3.50;99.90;;;;;;5009133;28;21187;-65
2021/04/14 07:26:51;;;;;;;10.57;9.13;;;3.50;99.90;;;;;;5008726;28;20453;-66
2021/04/14 07:29:39;;;;;;;17.57;8.60;;;3.60;99.90;;;;;;5009484;28;20477;-66
2021/04/14 07:32:17;;;;;;;10.90;8.27;;;3.70;99.90;;;;;;5004903;28;20486;-67
2021/04/14 07:35:10;;;;;;;12.17;8.80;;;3.80;99.90;;;;;;5008946;28;20446;-66
2021/04/14 07:37:43;;;;;;;10.27;7.90;;;4.00;99.90;;;;;;5009624;28;20442;-67
2021/04/14 07:40:17;;;;;;;9.87;7.60;;;4.10;99.90;;;;;;5009502;28;20499;-67
2021/04/14 07:42:52;;;;;;;12.70;8.53;;;4.30;99.90;;;;;;5008768;28;20470;-66
2021/04/14 07:45:27;;;;;;;8.13;6.90;;;4.50;99.90;;;;;;5008708;28;20480;-66
2021/04/14 07:47:56;;;;;;;8.73;7.67;;;4.50;99.90;;;;;;5008832;28;20445;-65
2021/04/14 07:50:31;;;;;;;12.20;7.93;;;4.50;99.90;;;;;;5008891;28;20573;-67
2021/04/14 07:52:57;;;;;;;10.07;7.00;;;4.50;99.90;;;;;;5008679;28;20477;-66
2021/04/14 07:55:31;;;;;;;11.50;7.40;;;4.60;99.90;;;;;;5008896;28;20454;-67
2021/04/14 07:58:15;;;;;;;8.23;7.33;;;4.70;99.90;;;;;;5008615;28;20468;-65
2021/04/14 08:00:43;;;;;;;11.60;6.40;;;4.80;99.90;;;;;;5008772;28;20493;-66
2021/04/14 08:03:25;;;;;;;11.57;6.20;;;4.90;99.90;;;;;;5008613;28;20964;-65
2021/04/14 08:05:52;;;;;;;9.73;5.30;;;5.00;99.90;;;;;;5008764;28;20549;-66
2021/04/14 08:08:24;;;;;;;7.80;5.17;;;5.20;99.90;;;;;;5008647;28;20528;-66
2021/04/14 08:11:03;;;;;;;10.73;5.53;;;5.40;99.90;;;;;;5008486;28;20473;-66
2021/04/14 08:13:36;;;;;;;6.27;4.83;;;5.50;99.90;;;;;;5008336;28;20456;-66
2021/04/14 08:16:11;;;;;;;9.60;4.67;;;5.50;99.90;;;;;;5009117;28;21007;-68
2021/04/14 08:18:40;;;;;;;6.53;4.47;;;5.70;99.90;;;;;;5008953;28;20502;-65
2021/04/14 08:21:12;;;;;;;7.00;4.30;;;5.80;99.90;;;;;;5008612;28;20466;-67
2021/04/14 08:23:51;;;;;;;5.70;3.90;;;5.90;99.90;;;;;;5008452;28;20454;-66
2021/04/14 08:26:21;;;;;;;9.77;4.40;;;6.10;99.90;;;;;;5008602;28;20532;-65
2021/04/14 08:28:49;;;;;;;6.30;4.07;;;6.20;99.90;;;;;;5008296;28;20534;-66
2021/04/14 08:31:22;;;;;;;5.87;5.00;;;6.10;99.90;;;;;;5008535;28;21143;-66
2021/04/14 08:33:52;;;;;;;9.10;4.70;;;6.20;99.90;;;;;;5008447;28;20533;-64
2021/04/14 08:36:35;;;;;;;6.47;4.57;;;6.20;99.90;;;;;;5009263;28;20537;-66
2021/04/14 08:39:11;;;;;;;6.70;4.60;;;6.30;99.90;;;;;;5008216;28;20920;-66
2021/04/14 08:41:38;;;;;;;6.47;5.20;;;6.40;99.90;;;;;;5008199;28;20472;-65
2021/04/14 08:44:11;;;;;;;6.83;4.40;;;6.60;99.90;;;;;;5008019;28;21192;-65
2021/04/14 08:46:39;;;;;;;5.70;4.63;;;6.90;99.90;;;;;;5008273;28;20454;-66
2021/04/14 08:49:09;;;;;;;6.73;4.50;;;7.10;99.90;;;;;;5008037;28;21156;-65
2021/04/14 08:51:39;;;;;;;7.73;4.20;;;7.40;99.90;;;;;;5007515;28;20497;-66
2021/04/14 08:54:08;;;;;;;4.60;3.90;;;7.60;99.90;;;;;;5007560;28;20510;-66
2021/04/14 08:56:34;;;;;;;6.30;3.60;;;7.90;99.90;;;;;;5007630;28;20804;-65
2021/04/14 08:59:00;;;;;;;5.87;4.03;;;8.20;99.90;;;;;;5007661;28;20466;-66
2021/04/14 09:01:31;;;;;;;5.97;4.27;;;8.60;99.90;;;;;;5007997;28;21011;-66
2021/04/14 09:04:00;;;;;;;5.77;3.73;;;8.80;99.90;;;;;;5007713;28;20904;-66
2021/04/14 09:06:28;;;;;;;7.57;4.47;;;9.20;98.90;;;;;;5008316;28;20449;-65
2021/04/14 09:08:57;;;;;;;5.07;3.90;;;9.20;98.10;;;;;;5007614;28;21074;-66
2021/04/14 09:11:25;;;;;;;5.50;3.83;;;9.30;99.20;;;;;;5008227;28;20469;-66
2021/04/14 09:14:01;;;;;;;6.00;4.00;;;9.60;97.40;;;;;;5007960;28;20500;-66
2021/04/14 09:16:35;;;;;;;8.60;4.40;;;9.50;95.40;;;;;;5009008;28;20449;-65
2021/04/14 09:19:08;;;;;;;4.03;3.40;;;9.60;96.40;;;;;;5008352;28;20447;-67
2021/04/14 09:21:46;;;;;;;7.73;4.23;;;9.50;95.20;;;;;;5007954;28;21020;-66
2021/04/14 09:24:40;;;;;;;4.77;3.60;;;9.80;95.60;;;;;;5007444;28;20536;-66
2021/04/14 09:27:22;;;;;;;6.20;3.83;;;9.90;95.20;;;;;;5007973;28;20456;-66
2021/04/14 09:29:59;;;;;;;5.63;4.07;;;10.10;94.40;;;;;;5007584;28;20497;-66
2021/04/14 09:32:54;;;;;;;6.03;4.40;;;10.00;93.80;;;;;;5007685;28;20442;-65
2021/04/14 09:35:40;;;;;;;7.57;4.33;;;9.90;94.90;;;;;;4973095;28;20577;-67
2021/04/14 09:38:13;;;;;;;6.43;4.20;;;10.30;94.10;;;;;;5007741;28;21046;-66
2021/04/14 09:40:40;;;;;;;8.43;4.43;;;10.20;93.10;;;;;;5008179;28;20476;-67
2021/04/14 09:43:30;;;;;;;6.90;4.30;;;10.30;92.90;;;;;;5007285;28;20538;-67
2021/04/14 09:45:59;;;;;;;8.23;4.20;;;10.80;92.90;;;;;;5007787;28;20848;-67
2021/04/14 09:48:38;;;;;;;7.50;4.37;;;11.30;91.90;;;;;;5007434;28;21172;-67
2021/04/14 09:51:17;;;;;;;13.40;5.53;;;11.50;90.10;;;;;;5007725;28;20476;-66
2021/04/14 09:53:43;;;;;;;9.33;4.27;;;11.00;91.00;;;;;;5007290;28;20481;-66
2021/04/14 09:56:16;;;;;;;8.80;5.03;;;10.50;91.50;;;;;;5007745;28;20450;-66
2021/04/14 09:58:47;;;;;;;10.77;3.93;;;10.00;92.00;;;;;;5007507;28;20438;-66
2021/04/14 10:01:22;;;;;;;4.47;3.90;;;9.40;93.20;;;;;;5007731;28;20580;-66
2021/04/14 10:03:49;;;;;;;5.60;4.53;;;9.10;93.70;;;;;;5008340;28;20481;-66
2021/04/14 10:06:23;;;;;;;6.20;4.97;;;9.00;95.10;;;;;;5008416;28;20478;-66
2021/04/14 10:08:57;;;;;;;17.00;4.70;;;9.00;94.10;;;;;;5009228;28;20489;-66
2021/04/14 10:11:27;;;;;;;5.40;3.10;;;8.50;93.80;;;;;;5011855;28;20497;-67
2021/04/14 10:13:55;;;;;;;5.67;3.40;;;8.10;94.00;;;;;;5012272;28;20535;-67
2021/04/14 10:16:24;;;;;;;9.03;3.40;;;7.80;95.80;;;;;;5010676;28;20933;-67
2021/04/14 10:19:00;;;;;;;3.80;3.00;;;8.00;96.60;;;;;;5010913;28;21065;-67
2021/04/14 10:21:27;;;;;;;3.60;2.73;;;8.40;96.30;;;;;;5011689;28;20476;-67
2021/04/14 10:24:01;;;;;;;6.00;3.00;;;9.10;96.00;;;;;;5010510;28;20505;-66
2021/04/14 10:26:30;;;;;;;3.13;2.73;;;9.50;94.80;;;;;;5011022;28;20541;-66
2021/04/14 10:29:00;;;;;;;4.47;3.10;;;9.90;94.10;;;;;;5010316;28;20459;-66
2021/04/14 10:31:27;;;;;;;2.80;2.57;;;10.40;93.30;;;;;;5002973;28;20219;-68
2021/04/14 10:33:53;;;;;;;5.40;2.50;;;10.90;92.40;;;;;;5010371;28;20888;-68
2021/04/14 10:36:25;;;;;;;3.33;2.70;;;11.10;91.00;;;;;;5010364;28;20538;-66
2021/04/14 10:38:53;;;;;;;4.97;2.77;;;11.20;90.90;;;;;;5010251;28;20584;-66
2021/04/14 10:41:22;;;;;;;4.93;2.63;;;11.30;90.30;;;;;;5010452;28;20466;-67
2021/04/14 10:43:50;;;;;;;7.30;3.30;;;11.40;89.30;;;;;;5009903;28;20979;-66
2021/04/14 10:46:22;;;;;;;3.13;2.43;;;11.00;83.80;;;;;;5010668;28;20532;-66
2021/04/14 10:48:57;;;;;;;2.77;2.47;;;10.80;85.00;;;;;;5010968;28;20489;-67
2021/04/14 10:51:27;;;;;;;4.20;2.70;;;10.80;85.80;;;;;;5011048;28;20623;-66
2021/04/14 10:53:57;;;;;;;5.83;2.97;;;10.70;81.90;;;;;;5011361;28;20457;-66
2021/04/14 10:56:26;;;;;;;2.97;2.57;;;10.70;83.90;;;;;;5011274;28;20490;-67
2021/04/14 10:58:55;;;;;;;3.20;2.40;;;10.60;86.80;;;;;;5011079;28;20481;-66
2021/04/14 11:01:35;;;;;;;7.80;3.60;;;10.80;86.40;;;;;;5010112;28;20497;-66
2021/04/14 11:04:32;;;;;;;4.90;3.10;;;10.80;87.20;;;;;;5009734;28;20892;-66
2021/04/14 11:07:01;;;;;;;3.67;3.00;;;10.90;84.60;;;;;;5010010;28;20932;-65
2021/04/14 11:09:31;;;;;;;4.17;2.70;;;11.10;83.40;;;;;;5009584;28;20551;-65
2021/04/14 11:12:00;;;;;;;4.43;3.30;;;11.30;84.10;;;;;;5009710;28;21391;-67
2021/04/14 11:14:27;;;;;;;4.10;3.00;;;11.50;81.70;;;;;;5009304;28;21120;-66
2021/04/14 11:16:54;;;;;;;4.53;2.60;;;11.70;80.40;;;;;;5008766;28;20460;-66
2021/04/14 11:19:23;;;;;;;3.47;2.67;;;12.00;81.10;;;;;;5005306;28;21246;-67
2021/04/14 11:22:01;;;;;;;3.07;2.60;;;12.10;76.20;;;;;;4998946;28;20473;-65
2021/04/14 11:24:27;;;;;;;2.90;2.27;;;11.90;79.20;;;;;;5000747;28;20875;-66
2021/04/14 11:26:56;;;;;;;4.00;2.73;;;12.00;77.60;;;;;;5001072;28;20537;-66
2021/04/14 11:29:25;;;;;;;5.53;2.60;;;12.30;77.60;;;;;;5000485;28;20493;-65
2021/04/14 11:31:53;;;;;;;3.83;2.67;;;12.60;77.50;;;;;;5001505;28;20474;-66
2021/04/14 11:34:23;;;;;;;4.30;3.13;;;12.70;77.40;;;;;;5000600;28;20450;-67
2021/04/14 11:36:59;;;;;;;3.40;2.53;;;12.70;75.50;;;;;;5007840;28;21008;-66
2021/04/14 11:39:28;;;;;;;3.87;2.77;;;12.90;76.40;;;;;;5007076;28;20452;-67
2021/04/14 11:42:13;;;;;;;4.90;2.73;;;12.70;70.30;;;;;;5004622;28;21144;-69
2021/04/14 11:44:43;;;;;;;3.57;2.63;;;12.50;69.10;;;;;;5002940;28;20524;-68
2021/04/14 11:47:23;;;;;;;3.03;2.73;;;12.50;75.20;;;;;;5009762;28;20996;-67
2021/04/14 11:49:50;;;;;;;3.40;2.67;;;12.80;72.90;;;;;;5009747;28;20527;-67
2021/04/14 11:52:23;;;;;;;4.37;2.77;;;13.00;72.50;;;;;;5008459;28;20465;-66
2021/04/14 11:54:52;;;;;;;5.30;2.73;;;13.30;73.50;;;;;;5000718;28;20544;-66
2021/04/14 11:57:24;;;;;;;4.03;2.97;;;13.30;70.30;;;;;;5007700;28;20522;-66
2021/04/14 12:00:05;;;;;;;6.30;3.00;;;13.40;70.50;;;;;;5007365;28;20871;-67
2021/04/14 12:02:38;;;;;;;8.23;3.53;;;13.00;70.40;;;;;;5006585;28;20480;-66
2021/04/14 12:05:06;;;;;;;4.43;2.60;;;12.30;72.00;;;;;;5007279;28;20529;-66
2021/04/14 12:07:33;;;;;;;6.03;3.20;;;11.10;80.30;;;;;;5006048;28;21005;-69
2021/04/14 12:10:00;;;;;;;4.50;3.50;;;10.10;86.00;;;;;;5008122;28;20560;-65
2021/04/14 12:12:26;;;;;;;5.73;3.30;;;9.60;87.50;;;;;;5007830;28;20530;-68
2021/04/14 12:14:53;;;;;;;5.73;3.50;;;8.90;90.60;;;;;;5005145;28;20591;-67
2021/04/14 12:17:20;;;;;;;4.20;3.40;;;8.50;93.00;;;;;;5008310;28;20520;-67
2021/04/14 12:19:47;;;;;;;5.47;3.17;;;8.30;95.10;;;;;;5008464;28;20473;-67
2021/04/14 12:22:14;;;;;;;7.77;3.43;;;8.00;96.20;;;;;;5008171;28;20506;-66
2021/04/14 12:24:43;;;;;;;4.87;3.60;;;7.80;98.30;;;;;;5008390;28;20474;-67
2021/04/14 12:27:10;;;;;;;8.07;3.70;;;7.50;99.70;;;;;;5008794;28;20500;-67
2021/04/14 12:29:36;;;;;;;6.40;4.00;;;7.30;99.90;;;;;;5008508;28;20524;-67
2021/04/14 12:32:03;;;;;;;4.70;3.50;;;7.40;99.90;;;;;;5008515;28;20896;-66
2021/04/14 12:34:30;;;;;;;4.57;3.23;;;7.50;99.90;;;;;;5008016;28;20640;-66
2021/04/14 12:36:57;;;;;;;4.70;3.90;;;7.60;99.90;;;;;;5008240;28;20474;-67
2021/04/14 12:39:24;;;;;;;3.43;2.93;;;7.80;99.90;;;;;;5008021;28;20454;-66
2021/04/14 12:41:51;;;;;;;5.40;3.50;;;8.00;99.90;;;;;;5008709;28;20532;-67
2021/04/14 12:44:19;;;;;;;5.23;3.70;;;8.20;99.50;;;;;;5007891;28;20537;-67
2021/04/14 12:46:48;;;;;;;7.10;3.47;;;8.30;99.90;;;;;;5008095;28;20449;-67
2021/04/14 12:49:17;;;;;;;5.10;3.30;;;8.30;99.60;;;;;;5006998;28;20478;-67
2021/04/14 12:51:48;;;;;;;4.17;3.40;;;8.20;99.00;;;;;;5006873;28;20492;-67
2021/04/14 12:54:25;;;;;;;4.40;2.93;;;8.20;96.80;;;;;;5007761;28;20543;-67
2021/04/14 12:56:56;;;;;;;4.63;3.30;;;8.20;97.70;;;;;;5008382;28;20532;-67
2021/04/14 12:59:26;;;;;;;3.50;3.00;;;8.40;97.00;;;;;;5007919;28;20437;-67
2021/04/14 13:02:01;;;;;;;5.13;3.10;;;8.50;95.90;;;;;;5006173;28;21052;-67
2021/04/14 13:04:34;;;;;;;3.40;3.10;;;8.40;94.90;;;;;;5007589;28;20445;-67